createdAt,value
2023-01-19T00:01:26.754Z,99558.59
2023-01-19T00:03:54.011Z,99559.38
2023-01-19T00:06:21.532Z,99577.41
2023-01-19T00:08:50.313Z,99579.47
2023-01-19T00:11:20.235Z,99590.44
2023-01-19T00:13:50.851Z,99588.75
2023-01-19T00:16:19.552Z,99597.31
2023-01-19T00:18:47.293Z,99598.22
2023-01-19T00:21:17.643Z,99607.25
2023-01-19T00:23:47.623Z,99617.19
2023-01-19T00:26:16.315Z,99624.06
2023-01-19T00:28:44.091Z,99623.44
2023-01-19T00:31:12.438Z,99629.34
2023-01-19T00:33:39.701Z,99629.69
2023-01-19T00:36:07.214Z,99637.94
2023-01-19T00:38:34.499Z,99636.84
2023-01-19T00:41:01.834Z,99640.13
2023-01-19T00:43:29.116Z,99652.19
2023-01-19T00:45:56.416Z,99654.66
2023-01-19T00:48:23.906Z,99661.19
2023-01-19T00:50:51.161Z,99660.31
2023-01-19T00:53:18.444Z,99662.09
2023-01-19T00:55:45.683Z,99666.97
2023-01-19T00:58:12.923Z,99672.31
2023-01-19T01:00:40.282Z,99680.19
2023-01-19T01:03:07.687Z,99683.72
2023-01-19T01:05:35.094Z,99695.69
2023-01-19T01:08:02.366Z,99701.00
2023-01-19T01:10:29.779Z,99709.44
2023-01-19T01:12:59.188Z,99718.25
2023-01-19T01:15:27.741Z,99729.75
2023-01-19T01:17:55.473Z,99730.28
2023-01-19T01:20:25.388Z,99722.25
2023-01-19T01:22:53.450Z,99735.72
2023-01-19T01:25:25.242Z,99745.75
2023-01-19T01:27:52.600Z,99740.72
2023-01-19T01:30:19.956Z,99751.03
2023-01-19T01:32:47.363Z,99749.31
2023-01-19T01:35:15.430Z,99764.41
2023-01-19T01:37:42.994Z,99765.88
2023-01-19T01:40:14.318Z,99773.16
2023-01-19T01:42:42.655Z,99774.63
2023-01-19T01:45:25.508Z,99785.91
2023-01-19T01:47:53.997Z,99794.53
2023-01-19T01:50:22.609Z,99800.22
2023-01-19T01:53:07.620Z,99800.09
2023-01-19T01:55:43.059Z,99809.84
2023-01-19T01:58:11.425Z,99803.34
2023-01-19T02:00:57.673Z,99812.00
2023-01-19T02:03:26.162Z,99810.91
2023-01-19T02:05:57.656Z,99803.53
2023-01-19T02:08:52.864Z,99805.31
2023-01-19T02:11:38.996Z,99802.28
2023-01-19T02:14:06.772Z,99806.44
2023-01-19T02:16:35.027Z,99807.09
2023-01-19T02:19:02.320Z,99813.09
2023-01-19T02:21:43.119Z,99808.03
2023-01-19T02:24:11.014Z,99813.56
2023-01-19T02:26:39.977Z,99825.09
2023-01-19T02:29:07.328Z,99834.59
2023-01-19T02:31:35.373Z,99834.72
2023-01-19T02:34:03.245Z,99844.25
2023-01-19T02:36:36.542Z,99846.06
2023-01-19T02:39:05.171Z,99853.91
2023-01-19T02:41:34.609Z,99850.97
2023-01-19T02:44:03.095Z,99844.00
2023-01-19T02:46:30.410Z,99849.91
2023-01-19T02:49:01.691Z,99857.31
2023-01-19T02:51:29.370Z,99856.50
2023-01-19T02:54:16.378Z,99871.47
2023-01-19T02:56:49.506Z,99874.78
2023-01-19T02:59:23.561Z,99876.44
2023-01-19T03:02:09.492Z,99885.47
2023-01-19T03:04:51.945Z,99893.44
2023-01-19T03:07:31.138Z,99901.09
2023-01-19T03:10:03.845Z,99921.72
2023-01-19T03:12:37.853Z,99920.13
2023-01-19T03:15:11.506Z,99925.94
2023-01-19T03:17:39.050Z,99932.25
2023-01-19T03:20:07.374Z,99935.41
2023-01-19T03:22:35.066Z,99947.31
2023-01-19T03:25:03.142Z,99955.75
2023-01-19T03:27:33.832Z,99955.44
2023-01-19T03:30:09.842Z,99958.16
2023-01-19T03:32:43.949Z,99965.13
2023-01-19T03:35:12.990Z,99967.66
2023-01-19T03:37:43.286Z,99970.47
2023-01-19T03:40:11.317Z,99972.78
2023-01-19T03:42:39.292Z,99975.03
2023-01-19T03:45:07.158Z,99981.91
2023-01-19T03:47:35.425Z,99969.56
2023-01-19T03:50:04.585Z,99963.56
2023-01-19T03:52:33.647Z,99975.59
2023-01-19T03:55:01.464Z,99991.25
2023-01-19T03:57:28.762Z,99982.81
2023-01-19T03:59:56.987Z,99997.28
2023-01-19T04:02:24.753Z,99996.44
2023-01-19T04:04:52.028Z,99998.75
2023-01-19T04:07:19.279Z,100008.16
2023-01-19T04:09:46.548Z,100019.94
2023-01-19T04:12:13.810Z,100015.56
2023-01-19T04:14:41.224Z,100028.66
2023-01-19T04:17:09.291Z,100044.34
2023-01-19T04:19:37.305Z,100046.06
2023-01-19T04:22:04.942Z,100054.91
2023-01-19T04:24:32.324Z,100054.09
2023-01-19T04:26:59.701Z,100057.16
2023-01-19T04:29:27.038Z,100061.47
2023-01-19T04:31:54.262Z,100071.16
2023-01-19T04:34:21.511Z,100080.53
2023-01-19T04:36:51.176Z,100074.81
2023-01-19T04:39:18.546Z,100079.34
2023-01-19T04:41:45.802Z,100092.44
2023-01-19T04:44:13.129Z,100098.78
2023-01-19T04:46:40.409Z,100104.25
2023-01-19T04:49:08.846Z,100108.84
2023-01-19T04:51:36.245Z,100122.00
2023-01-19T04:54:04.084Z,100117.31
2023-01-19T04:56:31.372Z,100124.72
2023-01-19T04:58:58.615Z,100114.47
2023-01-19T05:01:25.997Z,100127.28
2023-01-19T05:03:53.498Z,100128.31
2023-01-19T05:06:20.749Z,100136.97
2023-01-19T05:08:47.984Z,100136.22
2023-01-19T05:11:15.323Z,100127.63
2023-01-19T05:13:42.634Z,100135.72
2023-01-19T05:16:10.002Z,100133.84
2023-01-19T05:18:37.278Z,100129.72
2023-01-19T05:21:04.645Z,100131.72
2023-01-19T05:23:32.819Z,100135.25
2023-01-19T05:26:01.994Z,100139.56
2023-01-19T05:28:30.210Z,100133.00
2023-01-19T05:30:57.694Z,100133.44
2023-01-19T05:33:25.250Z,100143.28
2023-01-19T05:35:53.427Z,100150.94
2023-01-19T05:38:34.259Z,100150.41
2023-01-19T05:41:02.572Z,100161.78
2023-01-19T05:43:29.891Z,100155.47
2023-01-19T05:45:57.451Z,100151.78
2023-01-19T05:48:24.762Z,100156.97
2023-01-19T05:50:52.117Z,100154.69
2023-01-19T05:53:19.377Z,100167.50
2023-01-19T05:55:46.649Z,100168.34
2023-01-19T05:58:13.973Z,100165.78
2023-01-19T06:00:41.242Z,100160.38
2023-01-19T06:03:08.568Z,100157.56
2023-01-19T06:05:38.442Z,100166.09
2023-01-19T06:08:06.155Z,100164.66
2023-01-19T06:10:33.549Z,100160.94
2023-01-19T06:13:01.102Z,100173.09
2023-01-19T06:15:28.742Z,100171.25
2023-01-19T06:17:56.078Z,100160.09
2023-01-19T06:20:23.822Z,100165.53
2023-01-19T06:22:51.380Z,100168.91
2023-01-19T06:25:18.636Z,100169.19
2023-01-19T06:27:46.288Z,100183.75
2023-01-19T06:30:13.866Z,100194.00
2023-01-19T06:32:41.200Z,100202.00
2023-01-19T06:35:08.662Z,100204.81
2023-01-19T06:37:36.322Z,100205.69
2023-01-19T06:40:03.712Z,100209.81
2023-01-19T06:42:31.149Z,100215.22
2023-01-19T06:44:58.473Z,100226.50
2023-01-19T06:47:25.903Z,100246.13
2023-01-19T06:49:53.460Z,100250.47
2023-01-19T06:52:20.803Z,100252.13
2023-01-19T06:54:48.074Z,100259.00
2023-01-19T06:57:17.393Z,100263.41
2023-01-19T06:59:44.634Z,100268.69
2023-01-19T07:02:26.947Z,100281.34
2023-01-19T07:04:55.831Z,100278.66
2023-01-19T07:07:23.082Z,100287.19
2023-01-19T07:09:53.797Z,100290.34
2023-01-19T07:12:22.339Z,100286.94
2023-01-19T07:14:49.861Z,100286.94
2023-01-19T07:17:17.493Z,100284.50
2023-01-19T07:19:44.799Z,100282.66
2023-01-19T07:22:12.001Z,100288.06
2023-01-19T07:24:39.418Z,100290.78
2023-01-19T07:27:06.886Z,100298.91
2023-01-19T07:29:34.177Z,100312.28
2023-01-19T07:32:01.546Z,100318.53
2023-01-19T07:34:28.862Z,100317.72
2023-01-19T07:36:56.382Z,100321.66
2023-01-19T07:39:23.616Z,100330.50
2023-01-19T07:41:51.059Z,100326.09
2023-01-19T07:44:18.716Z,100335.94
2023-01-19T07:46:46.023Z,100335.66
2023-01-19T07:49:13.536Z,100329.97
2023-01-19T07:51:40.935Z,100334.50
2023-01-19T07:54:08.592Z,100331.09
2023-01-19T07:56:36.049Z,100343.22
2023-01-19T07:59:03.398Z,100335.97
2023-01-19T08:01:31.635Z,100343.06
2023-01-19T08:03:59.040Z,100345.38
2023-01-19T08:06:37.068Z,100347.91
2023-01-19T08:09:05.840Z,100352.78
2023-01-19T08:11:33.399Z,100349.63
2023-01-19T08:14:01.039Z,100356.34
2023-01-19T08:16:28.320Z,100354.19
2023-01-19T08:18:55.612Z,100364.75
2023-01-19T08:21:22.844Z,100379.28
2023-01-19T08:23:57.107Z,100381.84
2023-01-19T08:26:31.998Z,100394.59
2023-01-19T08:29:01.257Z,100398.72
2023-01-19T08:31:28.736Z,100408.06
2023-01-19T08:33:56.094Z,100419.47
2023-01-19T08:36:25.073Z,100416.91
2023-01-19T08:38:52.340Z,100420.59
2023-01-19T08:41:19.693Z,100423.13
2023-01-19T08:43:47.071Z,100438.25
2023-01-19T08:46:17.762Z,100436.25
2023-01-19T08:48:51.031Z,100443.41
2023-01-19T08:51:18.994Z,100440.56
2023-01-19T08:53:46.243Z,100452.50
2023-01-19T08:56:14.488Z,100463.63
2023-01-19T08:58:43.131Z,100464.47
2023-01-19T09:01:20.726Z,100471.94
2023-01-19T09:03:48.387Z,100478.69
2023-01-19T09:06:19.956Z,100480.84
2023-01-19T09:08:49.130Z,100493.72
2023-01-19T09:11:17.474Z,100482.13
2023-01-19T09:13:45.079Z,100492.53
2023-01-19T09:16:13.471Z,100497.63
2023-01-19T09:18:40.820Z,100507.56
2023-01-19T09:21:09.431Z,100507.38
2023-01-19T09:23:36.669Z,100511.97
2023-01-19T09:26:04.906Z,100503.78
2023-01-19T09:28:32.763Z,100513.81
2023-01-19T09:31:00.184Z,100505.50
2023-01-19T09:33:27.826Z,100515.50
2023-01-19T09:35:55.247Z,100506.41
2023-01-19T09:38:23.410Z,100504.38
2023-01-19T09:40:55.393Z,100500.00
2023-01-19T09:43:41.269Z,100497.13
2023-01-19T09:46:27.149Z,100489.56
2023-01-19T09:48:56.749Z,100498.75
2023-01-19T09:51:25.822Z,100503.94
2023-01-19T09:53:53.126Z,100507.78
2023-01-19T09:56:21.107Z,100515.91
2023-01-19T09:58:51.709Z,100514.88
2023-01-19T10:01:19.059Z,100510.19
2023-01-19T10:03:46.359Z,100515.59
2023-01-19T10:06:14.408Z,100518.47
2023-01-19T10:08:51.439Z,100520.75
2023-01-19T10:11:26.295Z,100534.72
2023-01-19T10:13:54.341Z,100539.88
2023-01-19T10:16:36.611Z,100534.63
2023-01-19T10:19:26.145Z,100533.75
2023-01-19T10:21:55.353Z,100545.56
2023-01-19T10:24:30.341Z,100534.72
2023-01-19T10:26:57.685Z,100530.34
2023-01-19T10:29:36.542Z,100541.16
2023-01-19T10:32:20.093Z,100547.66
2023-01-19T10:34:47.816Z,100547.69
2023-01-19T10:37:18.030Z,100537.56
2023-01-19T10:39:46.257Z,100541.13
2023-01-19T10:42:15.922Z,100534.56
2023-01-19T10:44:45.367Z,100531.94
2023-01-19T10:47:15.542Z,100536.66
2023-01-19T10:49:43.267Z,100539.06
2023-01-19T10:52:20.878Z,100541.16
2023-01-19T10:54:48.652Z,100547.19
2023-01-19T10:57:24.111Z,100537.28
2023-01-19T10:59:51.614Z,100549.78
2023-01-19T11:02:23.875Z,100548.41
2023-01-19T11:04:53.183Z,100550.19
2023-01-19T11:07:28.525Z,100551.81
2023-01-19T11:10:13.453Z,100551.19
2023-01-19T11:12:42.018Z,100553.22
2023-01-19T11:15:16.551Z,100543.84
2023-01-19T11:17:46.051Z,100551.56
2023-01-19T11:20:23.755Z,100558.84
2023-01-19T11:23:07.972Z,100552.59
2023-01-19T11:25:36.237Z,100556.13
2023-01-19T11:28:03.729Z,100555.59
2023-01-19T11:30:35.568Z,100553.50
2023-01-19T11:33:04.571Z,100544.97
2023-01-19T11:35:32.044Z,100547.44
2023-01-19T11:38:21.070Z,100548.00
2023-01-19T11:40:58.315Z,100544.06
2023-01-19T11:43:39.732Z,100541.59
2023-01-19T11:46:17.574Z,100553.09
2023-01-19T11:49:01.907Z,100556.97
2023-01-19T11:51:39.158Z,100560.19
2023-01-19T11:54:15.783Z,100561.56
2023-01-19T11:56:43.766Z,100561.38
2023-01-19T11:59:12.707Z,100562.81
2023-01-19T12:01:47.921Z,100557.28
2023-01-19T12:04:19.517Z,100565.25
2023-01-19T12:06:48.489Z,100561.16
2023-01-19T12:09:22.172Z,100559.41
2023-01-19T12:11:53.118Z,100561.88
2023-01-19T12:14:23.823Z,100555.56
2023-01-19T12:16:52.561Z,100551.28
2023-01-19T12:19:23.321Z,100554.00
2023-01-19T12:21:52.654Z,100561.97
2023-01-19T12:24:46.578Z,100563.94
2023-01-19T12:27:18.457Z,100569.25
2023-01-19T12:29:46.454Z,100566.19
2023-01-19T12:32:13.807Z,100561.28
2023-01-19T12:34:41.336Z,100558.31
2023-01-19T12:37:41.233Z,100570.56
2023-01-19T12:40:17.698Z,100583.63
2023-01-19T12:42:46.982Z,100575.81
2023-01-19T12:45:21.153Z,100580.50
2023-01-19T12:47:55.681Z,100579.09
2023-01-19T12:50:25.837Z,100584.22
2023-01-19T12:52:57.410Z,100584.94
2023-01-19T12:55:31.272Z,100586.19
2023-01-19T12:58:10.753Z,100581.97
2023-01-19T13:00:43.018Z,100582.47
2023-01-19T13:03:22.453Z,100593.59
2023-01-19T13:05:54.714Z,100587.75
2023-01-19T13:08:23.277Z,100588.38
2023-01-19T13:10:50.448Z,100597.94
2023-01-19T13:13:18.919Z,100607.25
2023-01-19T13:15:46.387Z,100604.72
2023-01-19T13:18:35.231Z,100601.94
2023-01-19T13:21:04.956Z,100605.44
2023-01-19T13:23:47.519Z,100606.38
2023-01-19T13:26:19.893Z,100613.56
2023-01-19T13:28:49.894Z,100609.25
2023-01-19T13:31:17.864Z,100612.03
2023-01-19T13:33:48.361Z,100616.97
2023-01-19T13:36:20.980Z,100615.63
2023-01-19T13:38:50.140Z,100615.94
2023-01-19T13:41:19.673Z,100619.44
2023-01-19T13:43:47.989Z,100615.25
2023-01-19T13:46:17.450Z,100613.00
2023-01-19T13:49:00.200Z,100612.72
2023-01-19T13:51:27.714Z,100611.22
2023-01-19T13:53:58.700Z,100604.97
2023-01-19T13:56:28.547Z,100608.34
2023-01-19T13:59:11.866Z,100604.66
2023-01-19T14:01:43.618Z,100599.88
2023-01-19T14:04:27.888Z,100608.13
2023-01-19T14:06:57.143Z,100602.94
2023-01-19T14:09:24.481Z,100612.38
2023-01-19T14:12:05.260Z,100605.53
2023-01-19T14:14:33.038Z,100609.16
2023-01-19T14:17:00.453Z,100606.44
2023-01-19T14:19:28.588Z,100615.38
2023-01-19T14:22:00.050Z,100614.03
2023-01-19T14:24:29.928Z,100616.00
2023-01-19T14:27:18.289Z,100615.41
2023-01-19T14:29:47.492Z,100626.31
2023-01-19T14:32:22.141Z,100627.00
2023-01-19T14:35:05.149Z,100629.84
2023-01-19T14:37:36.489Z,100633.38
2023-01-19T14:40:13.266Z,100627.31
2023-01-19T14:42:50.121Z,100628.63
2023-01-19T14:45:22.106Z,100634.28
2023-01-19T14:47:59.873Z,100627.44
2023-01-19T14:50:29.827Z,100628.06
2023-01-19T14:53:27.812Z,100626.47
2023-01-19T14:56:00.787Z,100633.59
2023-01-19T14:58:32.897Z,100627.72
2023-01-19T15:01:00.506Z,100638.44
2023-01-19T15:03:44.671Z,100637.28
2023-01-19T15:06:17.568Z,100640.22
2023-01-19T15:08:45.256Z,100649.78
2023-01-19T15:11:15.354Z,100649.84
2023-01-19T15:13:43.770Z,100657.25
2023-01-19T15:16:11.036Z,100656.22
2023-01-19T15:18:38.951Z,100664.06
2023-01-19T15:21:06.400Z,100657.13
2023-01-19T15:23:33.969Z,100666.34
2023-01-19T15:26:02.188Z,100664.97
2023-01-19T15:28:29.911Z,100669.28
2023-01-19T15:30:58.240Z,100670.34
2023-01-19T15:33:27.247Z,100669.28
2023-01-19T15:35:54.650Z,100673.00
2023-01-19T15:38:22.464Z,100673.50
2023-01-19T15:40:51.665Z,100677.19
2023-01-19T15:43:19.084Z,100686.06
2023-01-19T15:45:48.004Z,100684.66
2023-01-19T15:48:15.491Z,100694.31
2023-01-19T15:50:44.201Z,100691.25
2023-01-19T15:53:18.868Z,100692.47
2023-01-19T15:55:49.174Z,100692.50
2023-01-19T15:58:16.690Z,100697.03
2023-01-19T16:00:44.191Z,100697.13
2023-01-19T16:03:11.601Z,100702.44
2023-01-19T16:05:43.435Z,100702.53
2023-01-19T16:08:11.620Z,100705.63
2023-01-19T16:10:39.510Z,100707.06
2023-01-19T16:13:06.852Z,100708.66
2023-01-19T16:15:34.831Z,100704.97
2023-01-19T16:18:02.538Z,100706.53
2023-01-19T16:20:29.727Z,100706.94
2023-01-19T16:23:09.655Z,100706.72
2023-01-19T16:25:41.317Z,100708.88
2023-01-19T16:28:08.588Z,100711.13
2023-01-19T16:30:36.030Z,100719.88
2023-01-19T16:33:03.353Z,100713.03
2023-01-19T16:35:30.620Z,100719.34
2023-01-19T16:37:57.910Z,100726.09
2023-01-19T16:40:26.350Z,100726.44
2023-01-19T16:42:53.588Z,100737.94
2023-01-19T16:45:20.873Z,100738.59
2023-01-19T16:47:50.717Z,100740.22
2023-01-19T16:50:18.778Z,100746.81
2023-01-19T16:52:46.032Z,100737.94
2023-01-19T16:55:13.359Z,100750.41
2023-01-19T16:57:40.880Z,100752.78
2023-01-19T17:00:10.468Z,100759.81
2023-01-19T17:02:37.989Z,100756.00
2023-01-19T17:05:05.438Z,100763.69
2023-01-19T17:07:32.769Z,100759.91
2023-01-19T17:10:00.257Z,100757.19
2023-01-19T17:12:27.563Z,100762.97
2023-01-19T17:14:54.749Z,100765.16
2023-01-19T17:17:22.082Z,100761.47
2023-01-19T17:19:49.342Z,100768.00
2023-01-19T17:22:16.749Z,100777.97
2023-01-19T17:24:44.673Z,100776.22
2023-01-19T17:27:11.989Z,100774.59
2023-01-19T17:29:39.336Z,100774.88
2023-01-19T17:32:07.701Z,100764.16
2023-01-19T17:34:34.892Z,100765.75
2023-01-19T17:37:03.373Z,100778.53
2023-01-19T17:39:30.960Z,100772.31
2023-01-19T17:41:58.374Z,100767.84
2023-01-19T17:44:25.693Z,100772.22
2023-01-19T17:46:53.026Z,100772.72
2023-01-19T17:49:20.278Z,100778.94
2023-01-19T17:51:51.896Z,100774.63
2023-01-19T17:54:19.183Z,100770.22
2023-01-19T17:56:46.468Z,100777.16
2023-01-19T17:59:13.849Z,100778.13
2023-01-19T18:01:41.335Z,100780.81
2023-01-19T18:04:09.231Z,100790.59
2023-01-19T18:06:37.094Z,100794.91
2023-01-19T18:09:06.892Z,100789.22
2023-01-19T18:11:34.479Z,100790.06
2023-01-19T18:14:02.273Z,100794.81
2023-01-19T18:16:30.212Z,100799.94
2023-01-19T18:18:57.977Z,100801.78
2023-01-19T18:21:27.443Z,100803.50
2023-01-19T18:24:02.490Z,100807.91
2023-01-19T18:26:30.457Z,100793.75
2023-01-19T18:28:58.129Z,100801.97
2023-01-19T18:31:26.129Z,100795.03
2023-01-19T18:33:53.481Z,100791.78
2023-01-19T18:36:20.902Z,100792.72
2023-01-19T18:38:48.353Z,100789.22
2023-01-19T18:41:16.960Z,100785.59
2023-01-19T18:43:44.395Z,100790.72
2023-01-19T18:46:11.909Z,100793.38
2023-01-19T18:48:39.626Z,100803.22
2023-01-19T18:51:08.107Z,100791.69
2023-01-19T18:53:35.765Z,100792.25
2023-01-19T18:56:03.826Z,100793.91
2023-01-19T18:58:31.864Z,100796.53
2023-01-19T19:01:00.062Z,100797.00
2023-01-19T19:03:27.402Z,100792.19
2023-01-19T19:05:55.038Z,100797.66
2023-01-19T19:08:22.550Z,100799.97
2023-01-19T19:10:49.804Z,100798.88
2023-01-19T19:13:17.571Z,100806.44
2023-01-19T19:15:45.018Z,100800.19
2023-01-19T19:18:14.095Z,100803.69
2023-01-19T19:20:44.221Z,100797.06
2023-01-19T19:23:11.788Z,100807.78
2023-01-19T19:25:39.023Z,100813.09
2023-01-19T19:28:06.711Z,100805.59
2023-01-19T19:30:35.692Z,100796.13
2023-01-19T19:33:03.311Z,100799.59
2023-01-19T19:35:30.612Z,100802.75
2023-01-19T19:37:58.019Z,100802.06
2023-01-19T19:40:26.216Z,100798.00
2023-01-19T19:42:53.710Z,100798.25
2023-01-19T19:45:20.998Z,100804.56
2023-01-19T19:47:48.365Z,100798.88
2023-01-19T19:50:15.805Z,100801.53
2023-01-19T19:52:43.193Z,100796.28
2023-01-19T19:55:10.957Z,100804.47
2023-01-19T19:57:38.447Z,100798.09
2023-01-19T20:00:05.993Z,100800.78
2023-01-19T20:02:39.337Z,100803.03
2023-01-19T20:05:06.866Z,100798.34
2023-01-19T20:07:34.120Z,100797.22
2023-01-19T20:10:01.520Z,100798.53
2023-01-19T20:12:28.779Z,100797.16
2023-01-19T20:14:56.088Z,100806.44
2023-01-19T20:17:24.797Z,100801.03
2023-01-19T20:19:52.205Z,100806.19
2023-01-19T20:22:19.421Z,100809.34
2023-01-19T20:24:46.911Z,100809.88
2023-01-19T20:27:14.099Z,100804.72
2023-01-19T20:29:41.386Z,100798.66
2023-01-19T20:32:09.335Z,100799.31
2023-01-19T20:34:36.765Z,100808.84
2023-01-19T20:37:04.798Z,100802.75
2023-01-19T20:39:34.636Z,100805.22
2023-01-19T20:42:02.208Z,100801.69
2023-01-19T20:44:30.281Z,100796.28
2023-01-19T20:46:57.658Z,100797.94
2023-01-19T20:49:24.952Z,100797.75
2023-01-19T20:51:52.437Z,100804.09
2023-01-19T20:54:21.065Z,100800.06
2023-01-19T20:56:48.415Z,100800.06
2023-01-19T20:59:16.080Z,100798.09
2023-01-19T21:01:44.158Z,100801.03
2023-01-19T21:04:12.247Z,100794.44
2023-01-19T21:06:39.800Z,100795.78
2023-01-19T21:09:08.676Z,100808.91
2023-01-19T21:11:37.077Z,100801.13
2023-01-19T21:14:04.400Z,100807.72
2023-01-19T21:16:33.090Z,100800.53
2023-01-19T21:19:00.368Z,100796.13
2023-01-19T21:21:31.105Z,100800.59
2023-01-19T21:24:00.227Z,100802.31
2023-01-19T21:26:29.973Z,100797.41
2023-01-19T21:28:58.223Z,100802.06
2023-01-19T21:31:27.748Z,100799.06
2023-01-19T21:33:57.216Z,100802.81
2023-01-19T21:36:24.700Z,100810.13
2023-01-19T21:38:52.586Z,100809.34
2023-01-19T21:41:20.007Z,100817.78
2023-01-19T21:43:47.454Z,100817.38
2023-01-19T21:46:18.407Z,100813.16
2023-01-19T21:48:46.042Z,100821.31
2023-01-19T21:51:13.731Z,100820.13
2023-01-19T21:53:41.333Z,100829.41
2023-01-19T21:56:09.592Z,100835.25
2023-01-19T21:58:37.084Z,100826.88
2023-01-19T22:01:06.158Z,100837.50
2023-01-19T22:03:33.709Z,100835.31
2023-01-19T22:06:05.228Z,100834.13
2023-01-19T22:08:32.671Z,100831.38
2023-01-19T22:11:06.953Z,100830.59
2023-01-19T22:13:34.926Z,100829.59
2023-01-19T22:16:02.987Z,100829.25
2023-01-19T22:18:30.862Z,100831.91
2023-01-19T22:21:06.689Z,100838.47
2023-01-19T22:23:34.315Z,100834.28
2023-01-19T22:26:01.823Z,100836.00
2023-01-19T22:28:29.136Z,100831.63
2023-01-19T22:31:02.145Z,100828.22
2023-01-19T22:33:29.518Z,100826.31
2023-01-19T22:36:08.609Z,100836.72
2023-01-19T22:38:35.974Z,100835.94
2023-01-19T22:41:11.261Z,100847.63
2023-01-19T22:43:38.661Z,100838.09
2023-01-19T22:46:08.581Z,100831.72
2023-01-19T22:48:36.330Z,100838.94
2023-01-19T22:51:03.832Z,100839.63
2023-01-19T22:53:32.001Z,100848.41
2023-01-19T22:55:59.257Z,100847.19
2023-01-19T22:58:26.620Z,100849.09
2023-01-19T23:00:53.924Z,100849.41
2023-01-19T23:03:21.272Z,100844.94
2023-01-19T23:05:48.443Z,100848.91
2023-01-19T23:08:15.696Z,100852.13
2023-01-19T23:10:43.018Z,100844.28
2023-01-19T23:13:10.322Z,100851.56
2023-01-19T23:15:37.568Z,100854.72
2023-01-19T23:18:04.993Z,100854.03
2023-01-19T23:20:33.211Z,100848.84
2023-01-19T23:23:00.510Z,100849.59
2023-01-19T23:25:27.915Z,100859.59
2023-01-19T23:27:55.318Z,100852.81
2023-01-19T23:30:22.583Z,100862.16
2023-01-19T23:32:50.032Z,100861.41
2023-01-19T23:35:17.224Z,100864.44
2023-01-19T23:37:44.564Z,100858.44
2023-01-19T23:40:12.025Z,100862.84
2023-01-19T23:42:39.241Z,100869.81
2023-01-19T23:45:06.913Z,100866.38
2023-01-19T23:47:35.669Z,100867.31
2023-01-19T23:50:06.427Z,100869.25
2023-01-19T23:52:33.669Z,100873.19
2023-01-19T23:55:00.932Z,100871.53
2023-01-19T23:57:28.265Z,100872.00
2023-01-19T23:59:55.449Z,100875.03
